Terminal Aerodrome Forecast
Issued by NWS

Home | Current Version | Previous Version | Text Only | Print | Product List | Glossary On
Versions: 1 2 3 4 5 6 7 8 9 10 11 12 13 14
000
FTUS46 KSTO 021724
TAFRDD
TAF
KRDD 021724Z 0218/0318 18006KT P6SM VCSH SCT120 BKN200
     FM022200 19011KT P6SM SCT200
     FM030500 VRB05KT P6SM SKC=

USA.gov is the U.S. government's official web portal to all federal, state and local government web resources and services.